This is the latest recevied weather packets stored in our database for station/object LEAS. If no packets are shown the sender has not sent any weather packets the latest 10 day(s).
| Time | Temp. | Humidity | Pressure | Rain* | Wind** | Luminosity | Snow |
|---|---|---|---|---|---|---|---|
| 1787940902 | 21.11° C | 73% | 1019 hPa | - | - | - | - |
| 1787939103 | 20° C | 82% | 1019 hPa | - | - | - | - |
| 1787938204 | 21.11° C | 77% | 1019 hPa | - | - | - | - |
| 1787937303 | 21.11° C | 77% | 1019 hPa | - | - | - | - |
| 1787936404 | 21.11° C | 77% | 1019 hPa | - | - | - | - |
| 1787934604 | 23.89° C | 57% | 1018 hPa | - | - | - | - |
| 1787932803 | 22.78° C | 60% | 1018 hPa | - | - | - | - |
| 1787931003 | 22.22° C | 64% | 1018 hPa | - | - | - | - |
| 1787930102 | 22.22° C | 64% | 1018 hPa | - | - | - | - |
| 1787925603 | 22.22° C | 64% | 1018 hPa | - | - | - | - |
| 1787923803 | 22.78° C | 56% | 1017 hPa | - | - | - | - |
| 1787922903 | 22.78° C | 56% | 1017 hPa | - | - | - | - |
| 1787922003 | 22.78° C | 56% | 1017 hPa | - | - | - | - |
| 1787919303 | 22.78° C | 60% | 1017 hPa | - | - | - | - |
| 1787918404 | 22.78° C | 60% | 1017 hPa | - | - | - | - |
| 1787917502 | 22.78° C | 60% | 1017 hPa | - | - | - | - |
| 1787914803 | 21.11° C | 64% | 1017 hPa | - | - | - | - |
| 1787913903 | 21.11° C | 64% | 1017 hPa | - | - | - | - |
| 1787913003 | 21.11° C | 64% | 1016 hPa | - | - | - | - |
| 1787907604 | 17.78° C | 67% | 1016 hPa | - | - | - | - |
| 1787906703 | 17.78° C | 67% | 1016 hPa | - | - | - | - |
| 1787904003 | 17.22° C | 67% | 1015 hPa | - | - | - | - |
| 1787903103 | 17.22° C | 67% | 1015 hPa | - | - | - | - |
| 1787901302 | 17.22° C | 63% | 1015 hPa | - | - | - | - |
| 1787896803 | 16.11° C | 72% | 1015 hPa | - | - | - | - |
* Rain since midnight (hover to see other rain measurements)
** Current wind speed in m/s (hover to see current wind gust speed)